sensor_id;sensor_type;location;lat;lon;timestamp;temperature;humidity
28959;DHT22;16066;0.000;0.000;2023-04-12T00:01:13;19.90;38.90
28959;DHT22;16066;0.000;0.000;2023-04-12T00:03:38;19.90;38.80
28959;DHT22;16066;0.000;0.000;2023-04-12T00:06:04;19.90;38.80
28959;DHT22;16066;0.000;0.000;2023-04-12T00:08:32;19.90;38.80
28959;DHT22;16066;0.000;0.000;2023-04-12T00:11:01;19.90;38.80
28959;DHT22;16066;0.000;0.000;2023-04-12T00:13:28;19.90;38.80
28959;DHT22;16066;0.000;0.000;2023-04-12T00:15:54;19.90;38.70
28959;DHT22;16066;0.000;0.000;2023-04-12T00:18:19;19.90;38.70
28959;DHT22;16066;0.000;0.000;2023-04-12T00:20:52;19.90;38.80
28959;DHT22;16066;0.000;0.000;2023-04-12T00:23:17;19.90;38.80
28959;DHT22;16066;0.000;0.000;2023-04-12T00:25:43;19.80;38.70
28959;DHT22;16066;0.000;0.000;2023-04-12T00:28:09;19.80;38.70
28959;DHT22;16066;0.000;0.000;2023-04-12T00:30:36;19.80;38.80
28959;DHT22;16066;0.000;0.000;2023-04-12T00:33:01;19.80;38.90
28959;DHT22;16066;0.000;0.000;2023-04-12T00:35:27;19.80;38.90
28959;DHT22;16066;0.000;0.000;2023-04-12T00:37:52;19.80;38.90
28959;DHT22;16066;0.000;0.000;2023-04-12T00:40:19;19.80;39.00
28959;DHT22;16066;0.000;0.000;2023-04-12T00:42:45;19.80;38.90
28959;DHT22;16066;0.000;0.000;2023-04-12T00:45:11;19.80;39.00
28959;DHT22;16066;0.000;0.000;2023-04-12T00:47:37;19.80;39.00
28959;DHT22;16066;0.000;0.000;2023-04-12T00:50:04;19.80;39.00
28959;DHT22;16066;0.000;0.000;2023-04-12T00:52:33;19.80;39.10
28959;DHT22;16066;0.000;0.000;2023-04-12T00:55:03;19.80;39.10
28959;DHT22;16066;0.000;0.000;2023-04-12T00:57:33;19.70;39.00
28959;DHT22;16066;0.000;0.000;2023-04-12T01:00:02;19.70;39.10
28959;DHT22;16066;0.000;0.000;2023-04-12T01:02:29;19.70;39.10
28959;DHT22;16066;0.000;0.000;2023-04-12T01:04:55;19.70;39.10
28959;DHT22;16066;0.000;0.000;2023-04-12T01:07:46;19.70;39.20
28959;DHT22;16066;0.000;0.000;2023-04-12T01:10:23;19.70;39.20
28959;DHT22;16066;0.000;0.000;2023-04-12T01:13:19;19.70;39.20
28959;DHT22;16066;0.000;0.000;2023-04-12T01:15:53;19.70;39.20
28959;DHT22;16066;0.000;0.000;2023-04-12T01:18:21;19.70;39.30
28959;DHT22;16066;0.000;0.000;2023-04-12T01:21:09;19.70;39.30
28959;DHT22;16066;0.000;0.000;2023-04-12T01:24:02;19.70;39.40
28959;DHT22;16066;0.000;0.000;2023-04-12T01:26:53;19.70;39.30
28959;DHT22;16066;0.000;0.000;2023-04-12T01:29:23;19.70;39.40
28959;DHT22;16066;0.000;0.000;2023-04-12T01:31:57;19.70;39.40
28959;DHT22;16066;0.000;0.000;2023-04-12T01:34:24;19.70;39.50
28959;DHT22;16066;0.000;0.000;2023-04-12T01:36:51;19.70;39.40
28959;DHT22;16066;0.000;0.000;2023-04-12T01:39:17;19.70;39.50
28959;DHT22;16066;0.000;0.000;2023-04-12T01:41:43;19.70;39.50
28959;DHT22;16066;0.000;0.000;2023-04-12T01:44:14;19.70;39.50
28959;DHT22;16066;0.000;0.000;2023-04-12T01:46:40;19.70;39.50
28959;DHT22;16066;0.000;0.000;2023-04-12T01:49:07;19.70;39.50
28959;DHT22;16066;0.000;0.000;2023-04-12T01:52:02;19.70;39.50
28959;DHT22;16066;0.000;0.000;2023-04-12T01:54:37;19.60;39.50
28959;DHT22;16066;0.000;0.000;2023-04-12T01:57:03;19.60;39.50
28959;DHT22;16066;0.000;0.000;2023-04-12T01:59:38;19.60;39.50
28959;DHT22;16066;0.000;0.000;2023-04-12T02:02:04;19.60;39.50
28959;DHT22;16066;0.000;0.000;2023-04-12T02:04:30;19.60;39.50
28959;DHT22;16066;0.000;0.000;2023-04-12T02:06:56;19.60;39.60
28959;DHT22;16066;0.000;0.000;2023-04-12T02:09:22;19.60;39.60
28959;DHT22;16066;0.000;0.000;2023-04-12T02:11:48;19.60;39.60
28959;DHT22;16066;0.000;0.000;2023-04-12T02:14:14;19.60;39.60
28959;DHT22;16066;0.000;0.000;2023-04-12T02:16:40;19.60;39.60
28959;DHT22;16066;0.000;0.000;2023-04-12T02:19:07;19.60;39.60
28959;DHT22;16066;0.000;0.000;2023-04-12T02:21:43;19.60;39.60
28959;DHT22;16066;0.000;0.000;2023-04-12T02:24:09;19.60;39.70
28959;DHT22;16066;0.000;0.000;2023-04-12T02:26:35;19.60;39.70
28959;DHT22;16066;0.000;0.000;2023-04-12T02:29:02;19.60;39.70
28959;DHT22;16066;0.000;0.000;2023-04-12T02:31:28;19.60;39.70
28959;DHT22;16066;0.000;0.000;2023-04-12T02:33:55;19.60;39.70
28959;DHT22;16066;0.000;0.000;2023-04-12T02:36:20;19.60;39.70
28959;DHT22;16066;0.000;0.000;2023-04-12T02:38:46;19.60;39.70
28959;DHT22;16066;0.000;0.000;2023-04-12T02:41:19;19.60;39.70
28959;DHT22;16066;0.000;0.000;2023-04-12T02:43:45;19.60;39.70
28959;DHT22;16066;0.000;0.000;2023-04-12T02:46:14;19.60;39.70
28959;DHT22;16066;0.000;0.000;2023-04-12T02:48:40;19.60;39.70
28959;DHT22;16066;0.000;0.000;2023-04-12T02:51:05;19.50;39.60
28959;DHT22;16066;0.000;0.000;2023-04-12T02:53:31;19.50;39.70
28959;DHT22;16066;0.000;0.000;2023-04-12T02:55:57;19.50;39.70
28959;DHT22;16066;0.000;0.000;2023-04-12T02:58:25;19.50;39.70
28959;DHT22;16066;0.000;0.000;2023-04-12T03:00:52;19.50;39.70
28959;DHT22;16066;0.000;0.000;2023-04-12T03:03:17;19.50;39.70
28959;DHT22;16066;0.000;0.000;2023-04-12T03:05:43;19.50;39.80
28959;DHT22;16066;0.000;0.000;2023-04-12T03:08:12;19.50;39.70
28959;DHT22;16066;0.000;0.000;2023-04-12T03:10:37;19.50;39.80
28959;DHT22;16066;0.000;0.000;2023-04-12T03:13:03;19.50;39.70
28959;DHT22;16066;0.000;0.000;2023-04-12T03:15:30;19.50;39.80
28959;DHT22;16066;0.000;0.000;2023-04-12T03:17:55;19.50;39.80
28959;DHT22;16066;0.000;0.000;2023-04-12T03:20:21;19.50;39.80
28959;DHT22;16066;0.000;0.000;2023-04-12T03:22:49;19.50;39.80
28959;DHT22;16066;0.000;0.000;2023-04-12T03:25:14;19.50;39.80
28959;DHT22;16066;0.000;0.000;2023-04-12T03:27:42;19.50;39.70
28959;DHT22;16066;0.000;0.000;2023-04-12T03:30:09;19.50;39.80
28959;DHT22;16066;0.000;0.000;2023-04-12T03:32:41;19.50;39.80
28959;DHT22;16066;0.000;0.000;2023-04-12T03:35:07;19.50;39.80
28959;DHT22;16066;0.000;0.000;2023-04-12T03:37:33;19.50;39.80
28959;DHT22;16066;0.000;0.000;2023-04-12T03:39:59;19.50;39.80
28959;DHT22;16066;0.000;0.000;2023-04-12T03:42:26;19.50;39.80
28959;DHT22;16066;0.000;0.000;2023-04-12T03:44:52;19.50;39.80
28959;DHT22;16066;0.000;0.000;2023-04-12T03:47:18;19.40;39.80
28959;DHT22;16066;0.000;0.000;2023-04-12T03:49:43;19.50;39.80
28959;DHT22;16066;0.000;0.000;2023-04-12T03:52:09;19.50;39.90
28959;DHT22;16066;0.000;0.000;2023-04-12T03:54:35;19.40;39.80
28959;DHT22;16066;0.000;0.000;2023-04-12T03:57:00;19.40;39.90
28959;DHT22;16066;0.000;0.000;2023-04-12T03:59:27;19.40;39.90
28959;DHT22;16066;0.000;0.000;2023-04-12T04:01:54;19.40;39.90
28959;DHT22;16066;0.000;0.000;2023-04-12T04:04:19;19.40;39.90
28959;DHT22;16066;0.000;0.000;2023-04-12T04:06:45;19.40;39.80
28959;DHT22;16066;0.000;0.000;2023-04-12T04:09:11;19.40;40.00
28959;DHT22;16066;0.000;0.000;2023-04-12T04:11:37;19.40;40.00
28959;DHT22;16066;0.000;0.000;2023-04-12T04:14:02;19.40;40.00
28959;DHT22;16066;0.000;0.000;2023-04-12T04:16:28;19.40;40.00
28959;DHT22;16066;0.000;0.000;2023-04-12T04:18:55;19.40;40.00
28959;DHT22;16066;0.000;0.000;2023-04-12T04:21:20;19.40;40.10
28959;DHT22;16066;0.000;0.000;2023-04-12T04:23:46;19.40;40.10
28959;DHT22;16066;0.000;0.000;2023-04-12T04:26:13;19.40;40.10
28959;DHT22;16066;0.000;0.000;2023-04-12T04:28:41;19.40;40.10
28959;DHT22;16066;0.000;0.000;2023-04-12T04:31:09;19.40;40.20
28959;DHT22;16066;0.000;0.000;2023-04-12T04:33:35;19.40;40.20
28959;DHT22;16066;0.000;0.000;2023-04-12T04:36:02;19.40;40.20
28959;DHT22;16066;0.000;0.000;2023-04-12T04:38:30;19.40;40.20
28959;DHT22;16066;0.000;0.000;2023-04-12T04:40:59;19.40;40.20
28959;DHT22;16066;0.000;0.000;2023-04-12T04:43:27;19.40;40.20
28959;DHT22;16066;0.000;0.000;2023-04-12T04:45:55;19.40;40.20
28959;DHT22;16066;0.000;0.000;2023-04-12T04:48:21;19.40;40.40
28959;DHT22;16066;0.000;0.000;2023-04-12T04:50:46;19.40;40.30
28959;DHT22;16066;0.000;0.000;2023-04-12T04:53:12;19.40;40.20
28959;DHT22;16066;0.000;0.000;2023-04-12T04:55:38;19.50;40.20
28959;DHT22;16066;0.000;0.000;2023-04-12T04:58:04;19.50;40.20
28959;DHT22;16066;0.000;0.000;2023-04-12T05:00:30;19.50;40.20
28959;DHT22;16066;0.000;0.000;2023-04-12T05:02:56;19.50;40.20
28959;DHT22;16066;0.000;0.000;2023-04-12T05:05:21;19.50;40.20
28959;DHT22;16066;0.000;0.000;2023-04-12T05:07:47;19.50;40.10
28959;DHT22;16066;0.000;0.000;2023-04-12T05:10:13;19.60;40.20
28959;DHT22;16066;0.000;0.000;2023-04-12T05:12:39;19.60;40.10
28959;DHT22;16066;0.000;0.000;2023-04-12T05:15:05;19.60;40.00
28959;DHT22;16066;0.000;0.000;2023-04-12T05:17:31;19.70;40.00
28959;DHT22;16066;0.000;0.000;2023-04-12T05:19:59;19.70;40.00
28959;DHT22;16066;0.000;0.000;2023-04-12T05:22:24;19.70;39.90
28959;DHT22;16066;0.000;0.000;2023-04-12T05:24:50;19.80;39.90
28959;DHT22;16066;0.000;0.000;2023-04-12T05:27:16;19.80;39.80
28959;DHT22;16066;0.000;0.000;2023-04-12T05:29:42;19.80;39.80
28959;DHT22;16066;0.000;0.000;2023-04-12T05:32:08;19.80;39.70
28959;DHT22;16066;0.000;0.000;2023-04-12T05:34:33;19.80;39.70
28959;DHT22;16066;0.000;0.000;2023-04-12T05:36:59;19.80;39.70
28959;DHT22;16066;0.000;0.000;2023-04-12T05:39:25;19.90;39.70
28959;DHT22;16066;0.000;0.000;2023-04-12T05:41:52;19.90;39.60
28959;DHT22;16066;0.000;0.000;2023-04-12T05:44:17;19.90;39.60
28959;DHT22;16066;0.000;0.000;2023-04-12T05:46:43;19.90;39.60
28959;DHT22;16066;0.000;0.000;2023-04-12T05:49:08;20.00;39.60
28959;DHT22;16066;0.000;0.000;2023-04-12T05:51:34;20.00;39.90
28959;DHT22;16066;0.000;0.000;2023-04-12T05:53:59;20.00;39.60
28959;DHT22;16066;0.000;0.000;2023-04-12T05:56:25;20.00;39.50
28959;DHT22;16066;0.000;0.000;2023-04-12T05:58:51;20.00;39.50
28959;DHT22;16066;0.000;0.000;2023-04-12T06:01:16;20.00;39.50
28959;DHT22;16066;0.000;0.000;2023-04-12T06:03:44;20.00;39.50
28959;DHT22;16066;0.000;0.000;2023-04-12T06:06:10;20.10;39.60
28959;DHT22;16066;0.000;0.000;2023-04-12T06:08:36;20.10;39.60
28959;DHT22;16066;0.000;0.000;2023-04-12T06:11:03;20.10;39.50
28959;DHT22;16066;0.000;0.000;2023-04-12T06:13:28;20.10;39.50
28959;DHT22;16066;0.000;0.000;2023-04-12T06:15:54;20.10;39.50
28959;DHT22;16066;0.000;0.000;2023-04-12T06:18:19;20.10;39.50
28959;DHT22;16066;0.000;0.000;2023-04-12T06:20:45;20.10;39.50
28959;DHT22;16066;0.000;0.000;2023-04-12T06:23:10;20.10;39.60
28959;DHT22;16066;0.000;0.000;2023-04-12T06:25:36;20.10;39.70
28959;DHT22;16066;0.000;0.000;2023-04-12T06:28:02;20.10;39.70
28959;DHT22;16066;0.000;0.000;2023-04-12T06:30:27;20.10;39.70
28959;DHT22;16066;0.000;0.000;2023-04-12T06:32:53;20.20;39.70
28959;DHT22;16066;0.000;0.000;2023-04-12T06:35:18;20.20;39.70
28959;DHT22;16066;0.000;0.000;2023-04-12T06:37:45;20.20;39.70
28959;DHT22;16066;0.000;0.000;2023-04-12T06:40:11;20.20;39.70
28959;DHT22;16066;0.000;0.000;2023-04-12T06:42:37;20.20;39.70
28959;DHT22;16066;0.000;0.000;2023-04-12T06:45:03;20.20;39.70
28959;DHT22;16066;0.000;0.000;2023-04-12T06:47:30;20.20;40.30
28959;DHT22;16066;0.000;0.000;2023-04-12T06:49:56;20.20;39.70
28959;DHT22;16066;0.000;0.000;2023-04-12T06:52:25;20.20;40.00
28959;DHT22;16066;0.000;0.000;2023-04-12T06:54:52;20.30;40.20
28959;DHT22;16066;0.000;0.000;2023-04-12T06:57:17;20.30;40.30
28959;DHT22;16066;0.000;0.000;2023-04-12T06:59:43;20.30;40.50
28959;DHT22;16066;0.000;0.000;2023-04-12T07:02:09;20.30;40.40
28959;DHT22;16066;0.000;0.000;2023-04-12T07:04:34;20.30;40.30
28959;DHT22;16066;0.000;0.000;2023-04-12T07:07:00;20.40;40.30
28959;DHT22;16066;0.000;0.000;2023-04-12T07:09:25;20.40;40.20
28959;DHT22;16066;0.000;0.000;2023-04-12T07:11:51;20.40;40.20
28959;DHT22;16066;0.000;0.000;2023-04-12T07:14:17;20.40;40.10
28959;DHT22;16066;0.000;0.000;2023-04-12T07:16:43;20.50;40.10
28959;DHT22;16066;0.000;0.000;2023-04-12T07:19:08;20.50;40.20
28959;DHT22;16066;0.000;0.000;2023-04-12T07:21:34;20.50;40.30
28959;DHT22;16066;0.000;0.000;2023-04-12T07:23:59;20.50;40.40
28959;DHT22;16066;0.000;0.000;2023-04-12T07:26:26;20.50;40.20
28959;DHT22;16066;0.000;0.000;2023-04-12T07:28:51;20.50;40.30
28959;DHT22;16066;0.000;0.000;2023-04-12T07:31:17;20.50;40.10
28959;DHT22;16066;0.000;0.000;2023-04-12T07:33:42;20.50;40.20
28959;DHT22;16066;0.000;0.000;2023-04-12T07:36:08;20.50;40.10
28959;DHT22;16066;0.000;0.000;2023-04-12T07:38:34;20.60;40.40
28959;DHT22;16066;0.000;0.000;2023-04-12T07:40:59;20.60;40.30
28959;DHT22;16066;0.000;0.000;2023-04-12T07:43:25;20.60;40.30
28959;DHT22;16066;0.000;0.000;2023-04-12T07:45:50;20.60;40.30
28959;DHT22;16066;0.000;0.000;2023-04-12T07:48:16;20.60;40.20
28959;DHT22;16066;0.000;0.000;2023-04-12T07:50:42;20.70;40.10
28959;DHT22;16066;0.000;0.000;2023-04-12T07:53:19;20.70;40.30
28959;DHT22;16066;0.000;0.000;2023-04-12T07:55:45;20.70;40.20
28959;DHT22;16066;0.000;0.000;2023-04-12T07:58:10;20.70;40.10
28959;DHT22;16066;0.000;0.000;2023-04-12T08:00:36;20.60;39.90
28959;DHT22;16066;0.000;0.000;2023-04-12T08:03:02;20.70;40.10
28959;DHT22;16066;0.000;0.000;2023-04-12T08:05:27;20.70;40.20
28959;DHT22;16066;0.000;0.000;2023-04-12T08:07:53;20.60;40.10
28959;DHT22;16066;0.000;0.000;2023-04-12T08:10:18;20.60;40.00
28959;DHT22;16066;0.000;0.000;2023-04-12T08:12:44;20.60;40.00
28959;DHT22;16066;0.000;0.000;2023-04-12T08:15:10;20.50;39.90
28959;DHT22;16066;0.000;0.000;2023-04-12T08:17:35;20.60;40.00
28959;DHT22;16066;0.000;0.000;2023-04-12T08:20:01;20.50;40.00
28959;DHT22;16066;0.000;0.000;2023-04-12T08:22:28;20.60;40.10
28959;DHT22;16066;0.000;0.000;2023-04-12T08:24:54;20.50;40.00
28959;DHT22;16066;0.000;0.000;2023-04-12T08:27:20;20.50;40.00
28959;DHT22;16066;0.000;0.000;2023-04-12T08:29:45;20.50;40.00
28959;DHT22;16066;0.000;0.000;2023-04-12T08:32:11;20.50;40.10
28959;DHT22;16066;0.000;0.000;2023-04-12T08:34:37;20.50;40.10
28959;DHT22;16066;0.000;0.000;2023-04-12T08:37:03;20.50;40.10
28959;DHT22;16066;0.000;0.000;2023-04-12T08:39:30;20.50;40.10
28959;DHT22;16066;0.000;0.000;2023-04-12T08:41:56;20.60;40.60
28959;DHT22;16066;0.000;0.000;2023-04-12T08:44:33;20.60;40.30
28959;DHT22;16066;0.000;0.000;2023-04-12T08:47:01;20.60;40.30
28959;DHT22;16066;0.000;0.000;2023-04-12T08:49:27;20.60;40.20
28959;DHT22;16066;0.000;0.000;2023-04-12T08:51:55;20.60;40.20
28959;DHT22;16066;0.000;0.000;2023-04-12T08:54:23;20.60;40.20
28959;DHT22;16066;0.000;0.000;2023-04-12T08:56:49;20.60;40.30
28959;DHT22;16066;0.000;0.000;2023-04-12T08:59:18;20.70;40.20
28959;DHT22;16066;0.000;0.000;2023-04-12T09:01:44;20.60;40.30
28959;DHT22;16066;0.000;0.000;2023-04-12T09:04:09;20.60;40.30
28959;DHT22;16066;0.000;0.000;2023-04-12T09:06:35;20.70;40.30
28959;DHT22;16066;0.000;0.000;2023-04-12T09:09:00;20.70;40.20
28959;DHT22;16066;0.000;0.000;2023-04-12T09:11:30;20.70;40.10
28959;DHT22;16066;0.000;0.000;2023-04-12T09:13:56;20.70;40.10
28959;DHT22;16066;0.000;0.000;2023-04-12T09:16:41;20.70;40.10
28959;DHT22;16066;0.000;0.000;2023-04-12T09:19:07;20.70;40.10
28959;DHT22;16066;0.000;0.000;2023-04-12T09:21:33;20.60;40.20
28959;DHT22;16066;0.000;0.000;2023-04-12T09:26:28;20.70;40.40
28959;DHT22;16066;0.000;0.000;2023-04-12T09:28:56;20.70;40.30
28959;DHT22;16066;0.000;0.000;2023-04-12T09:31:21;20.70;40.40
28959;DHT22;16066;0.000;0.000;2023-04-12T09:33:47;20.70;40.50
28959;DHT22;16066;0.000;0.000;2023-04-12T09:36:12;20.70;40.50
28959;DHT22;16066;0.000;0.000;2023-04-12T09:38:38;20.70;40.40
28959;DHT22;16066;0.000;0.000;2023-04-12T09:41:20;20.70;40.30
28959;DHT22;16066;0.000;0.000;2023-04-12T09:43:47;20.70;40.20
28959;DHT22;16066;0.000;0.000;2023-04-12T09:46:13;20.70;40.10
28959;DHT22;16066;0.000;0.000;2023-04-12T09:48:39;20.70;40.30
28959;DHT22;16066;0.000;0.000;2023-04-12T09:51:08;20.60;40.10
28959;DHT22;16066;0.000;0.000;2023-04-12T09:53:34;20.60;40.00
28959;DHT22;16066;0.000;0.000;2023-04-12T09:56:03;20.60;39.90
28959;DHT22;16066;0.000;0.000;2023-04-12T09:58:31;20.60;40.20
28959;DHT22;16066;0.000;0.000;2023-04-12T10:01:00;20.60;40.10
28959;DHT22;16066;0.000;0.000;2023-04-12T10:03:27;20.60;40.20
28959;DHT22;16066;0.000;0.000;2023-04-12T10:05:53;20.60;40.20
28959;DHT22;16066;0.000;0.000;2023-04-12T10:08:21;20.60;40.20
28959;DHT22;16066;0.000;0.000;2023-04-12T10:10:46;20.60;40.20
28959;DHT22;16066;0.000;0.000;2023-04-12T10:13:12;20.60;40.20
28959;DHT22;16066;0.000;0.000;2023-04-12T10:15:39;20.70;40.30
28959;DHT22;16066;0.000;0.000;2023-04-12T10:18:05;20.70;40.40
28959;DHT22;16066;0.000;0.000;2023-04-12T10:20:31;20.70;40.30
28959;DHT22;16066;0.000;0.000;2023-04-12T10:22:57;20.70;40.50
28959;DHT22;16066;0.000;0.000;2023-04-12T10:25:27;20.70;40.40
28959;DHT22;16066;0.000;0.000;2023-04-12T10:27:55;20.70;40.30
28959;DHT22;16066;0.000;0.000;2023-04-12T10:35:30;20.70;40.40
28959;DHT22;16066;0.000;0.000;2023-04-12T10:37:59;20.70;40.50
28959;DHT22;16066;0.000;0.000;2023-04-12T10:40:25;20.70;40.30
28959;DHT22;16066;0.000;0.000;2023-04-12T10:45:48;20.70;40.20
28959;DHT22;16066;0.000;0.000;2023-04-12T10:48:39;20.70;40.20
28959;DHT22;16066;0.000;0.000;2023-04-12T10:51:23;20.70;40.10
28959;DHT22;16066;0.000;0.000;2023-04-12T10:56:41;20.70;40.20
28959;DHT22;16066;0.000;0.000;2023-04-12T10:59:08;20.70;40.10
28959;DHT22;16066;0.000;0.000;2023-04-12T11:01:34;20.70;40.10
28959;DHT22;16066;0.000;0.000;2023-04-12T11:06:55;20.70;40.10
28959;DHT22;16066;0.000;0.000;2023-04-12T11:19:37;20.70;40.00
28959;DHT22;16066;0.000;0.000;2023-04-12T11:22:05;20.70;40.00
28959;DHT22;16066;0.000;0.000;2023-04-12T11:24:31;20.70;40.10
28959;DHT22;16066;0.000;0.000;2023-04-12T11:26:57;20.70;40.10
28959;DHT22;16066;0.000;0.000;2023-04-12T11:29:24;20.70;40.10
28959;DHT22;16066;0.000;0.000;2023-04-12T11:31:50;20.70;40.00
28959;DHT22;16066;0.000;0.000;2023-04-12T11:34:18;20.70;40.00
28959;DHT22;16066;0.000;0.000;2023-04-12T11:36:45;20.70;40.00
28959;DHT22;16066;0.000;0.000;2023-04-12T11:39:11;20.70;39.90
28959;DHT22;16066;0.000;0.000;2023-04-12T11:41:43;20.70;39.90
28959;DHT22;16066;0.000;0.000;2023-04-12T11:44:09;20.70;39.90
28959;DHT22;16066;0.000;0.000;2023-04-12T11:46:34;20.70;40.60
28959;DHT22;16066;0.000;0.000;2023-04-12T11:49:00;20.70;39.90
28959;DHT22;16066;0.000;0.000;2023-04-12T11:51:26;20.80;39.90
28959;DHT22;16066;0.000;0.000;2023-04-12T11:53:55;20.70;39.80
28959;DHT22;16066;0.000;0.000;2023-04-12T11:56:24;20.70;39.70
28959;DHT22;16066;0.000;0.000;2023-04-12T11:58:50;20.70;39.70
28959;DHT22;16066;0.000;0.000;2023-04-12T12:01:18;20.70;39.70
28959;DHT22;16066;0.000;0.000;2023-04-12T12:03:44;20.70;39.50
28959;DHT22;16066;0.000;0.000;2023-04-12T12:06:11;20.70;39.60
28959;DHT22;16066;0.000;0.000;2023-04-12T12:08:38;20.70;39.60
28959;DHT22;16066;0.000;0.000;2023-04-12T12:11:04;20.70;39.60
28959;DHT22;16066;0.000;0.000;2023-04-12T12:13:48;20.70;39.60
28959;DHT22;16066;0.000;0.000;2023-04-12T12:16:15;20.70;39.60
28959;DHT22;16066;0.000;0.000;2023-04-12T12:18:42;20.70;40.20
28959;DHT22;16066;0.000;0.000;2023-04-12T12:21:09;20.60;39.50
28959;DHT22;16066;0.000;0.000;2023-04-12T12:23:35;20.70;39.60
28959;DHT22;16066;0.000;0.000;2023-04-12T12:26:02;20.70;39.60
28959;DHT22;16066;0.000;0.000;2023-04-12T12:28:28;20.70;39.60
28959;DHT22;16066;0.000;0.000;2023-04-12T12:30:57;20.60;39.50
28959;DHT22;16066;0.000;0.000;2023-04-12T12:33:23;20.70;39.50
28959;DHT22;16066;0.000;0.000;2023-04-12T12:35:56;20.70;39.50
28959;DHT22;16066;0.000;0.000;2023-04-12T12:38:21;20.70;39.50
28959;DHT22;16066;0.000;0.000;2023-04-12T12:40:47;20.70;39.50
28959;DHT22;16066;0.000;0.000;2023-04-12T12:43:19;20.70;39.50
28959;DHT22;16066;0.000;0.000;2023-04-12T12:45:45;20.70;39.50
28959;DHT22;16066;0.000;0.000;2023-04-12T12:48:11;20.70;39.50
28959;DHT22;16066;0.000;0.000;2023-04-12T12:50:38;20.70;39.50
28959;DHT22;16066;0.000;0.000;2023-04-12T12:53:03;20.70;39.50
28959;DHT22;16066;0.000;0.000;2023-04-12T12:55:31;20.70;39.50
28959;DHT22;16066;0.000;0.000;2023-04-12T12:57:57;20.80;39.50
28959;DHT22;16066;0.000;0.000;2023-04-12T13:00:26;20.80;39.40
28959;DHT22;16066;0.000;0.000;2023-04-12T13:02:52;20.80;39.40
28959;DHT22;16066;0.000;0.000;2023-04-12T13:05:18;20.80;39.40
28959;DHT22;16066;0.000;0.000;2023-04-12T13:07:45;20.80;39.40
28959;DHT22;16066;0.000;0.000;2023-04-12T13:10:11;20.80;39.40
28959;DHT22;16066;0.000;0.000;2023-04-12T13:12:37;20.90;39.40
28959;DHT22;16066;0.000;0.000;2023-04-12T13:15:03;20.90;39.50
28959;DHT22;16066;0.000;0.000;2023-04-12T13:17:29;20.90;39.50
28959;DHT22;16066;0.000;0.000;2023-04-12T13:19:55;20.90;39.60
28959;DHT22;16066;0.000;0.000;2023-04-12T13:22:21;20.90;39.50
28959;DHT22;16066;0.000;0.000;2023-04-12T13:24:48;20.90;39.50
28959;DHT22;16066;0.000;0.000;2023-04-12T13:27:14;21.00;39.70
28959;DHT22;16066;0.000;0.000;2023-04-12T13:29:40;21.00;39.70
28959;DHT22;16066;0.000;0.000;2023-04-12T13:32:06;21.00;39.80
28959;DHT22;16066;0.000;0.000;2023-04-12T13:34:32;21.10;39.80
28959;DHT22;16066;0.000;0.000;2023-04-12T13:36:58;21.10;39.80
28959;DHT22;16066;0.000;0.000;2023-04-12T13:39:23;21.10;39.80
28959;DHT22;16066;0.000;0.000;2023-04-12T13:41:50;21.10;39.90
28959;DHT22;16066;0.000;0.000;2023-04-12T13:44:15;21.10;39.90
28959;DHT22;16066;0.000;0.000;2023-04-12T13:46:41;21.10;40.10
28959;DHT22;16066;0.000;0.000;2023-04-12T13:49:07;21.10;40.00
28959;DHT22;16066;0.000;0.000;2023-04-12T13:51:32;21.10;40.00
28959;DHT22;16066;0.000;0.000;2023-04-12T13:53:58;21.20;40.10
28959;DHT22;16066;0.000;0.000;2023-04-12T13:56:23;21.10;40.10
28959;DHT22;16066;0.000;0.000;2023-04-12T13:58:49;21.20;40.30
28959;DHT22;16066;0.000;0.000;2023-04-12T14:01:14;21.20;40.40
28959;DHT22;16066;0.000;0.000;2023-04-12T14:03:40;21.20;40.30
28959;DHT22;16066;0.000;0.000;2023-04-12T14:06:06;21.20;40.40
28959;DHT22;16066;0.000;0.000;2023-04-12T14:08:32;21.20;40.40
28959;DHT22;16066;0.000;0.000;2023-04-12T14:10:57;21.10;40.40
28959;DHT22;16066;0.000;0.000;2023-04-12T14:13:24;21.20;40.50
28959;DHT22;16066;0.000;0.000;2023-04-12T14:15:50;21.10;40.30
28959;DHT22;16066;0.000;0.000;2023-04-12T14:18:16;21.10;40.20
28959;DHT22;16066;0.000;0.000;2023-04-12T14:20:42;21.10;40.10
28959;DHT22;16066;0.000;0.000;2023-04-12T14:23:14;21.10;40.30
28959;DHT22;16066;0.000;0.000;2023-04-12T14:25:39;21.10;40.10
28959;DHT22;16066;0.000;0.000;2023-04-12T14:28:05;21.10;40.10
28959;DHT22;16066;0.000;0.000;2023-04-12T14:30:31;21.10;40.00
28959;DHT22;16066;0.000;0.000;2023-04-12T14:32:57;21.10;40.10
28959;DHT22;16066;0.000;0.000;2023-04-12T14:35:22;21.10;40.00
28959;DHT22;16066;0.000;0.000;2023-04-12T14:37:48;21.00;39.80
28959;DHT22;16066;0.000;0.000;2023-04-12T14:40:13;21.00;39.80
28959;DHT22;16066;0.000;0.000;2023-04-12T14:42:39;21.00;39.80
28959;DHT22;16066;0.000;0.000;2023-04-12T14:45:05;21.00;40.00
28959;DHT22;16066;0.000;0.000;2023-04-12T14:47:32;21.00;40.00
28959;DHT22;16066;0.000;0.000;2023-04-12T14:49:58;21.00;40.00
28959;DHT22;16066;0.000;0.000;2023-04-12T14:52:24;21.00;40.00
28959;DHT22;16066;0.000;0.000;2023-04-12T14:54:50;21.00;40.00
28959;DHT22;16066;0.000;0.000;2023-04-12T14:57:16;20.90;40.00
28959;DHT22;16066;0.000;0.000;2023-04-12T14:59:42;21.00;40.10
28959;DHT22;16066;0.000;0.000;2023-04-12T15:02:07;21.00;40.10
28959;DHT22;16066;0.000;0.000;2023-04-12T15:04:33;21.00;40.10
28959;DHT22;16066;0.000;0.000;2023-04-12T15:06:58;21.00;40.10
28959;DHT22;16066;0.000;0.000;2023-04-12T15:09:24;21.00;40.10
28959;DHT22;16066;0.000;0.000;2023-04-12T15:11:50;21.00;40.10
28959;DHT22;16066;0.000;0.000;2023-04-12T15:14:19;21.00;40.80
28959;DHT22;16066;0.000;0.000;2023-04-12T15:16:45;21.10;40.80
28959;DHT22;16066;0.000;0.000;2023-04-12T15:19:11;21.40;40.60
28959;DHT22;16066;0.000;0.000;2023-04-12T15:21:37;21.60;40.40
28959;DHT22;16066;0.000;0.000;2023-04-12T15:24:03;22.00;40.20
28959;DHT22;16066;0.000;0.000;2023-04-12T15:26:28;22.20;39.90
28959;DHT22;16066;0.000;0.000;2023-04-12T15:28:54;22.40;39.70
28959;DHT22;16066;0.000;0.000;2023-04-12T15:31:20;22.50;39.50
28959;DHT22;16066;0.000;0.000;2023-04-12T15:33:45;22.70;39.30
28959;DHT22;16066;0.000;0.000;2023-04-12T15:36:11;22.70;39.20
28959;DHT22;16066;0.000;0.000;2023-04-12T15:38:40;22.50;39.40
28959;DHT22;16066;0.000;0.000;2023-04-12T15:41:09;22.40;39.60
28959;DHT22;16066;0.000;0.000;2023-04-12T15:43:35;22.30;40.00
28959;DHT22;16066;0.000;0.000;2023-04-12T15:46:00;22.20;39.40
28959;DHT22;16066;0.000;0.000;2023-04-12T15:48:26;22.10;39.40
28959;DHT22;16066;0.000;0.000;2023-04-12T15:50:53;22.00;39.60
28959;DHT22;16066;0.000;0.000;2023-04-12T15:53:22;21.90;39.70
28959;DHT22;16066;0.000;0.000;2023-04-12T15:55:48;21.80;39.70
28959;DHT22;16066;0.000;0.000;2023-04-12T15:58:22;21.80;39.70
28959;DHT22;16066;0.000;0.000;2023-04-12T16:00:48;21.80;39.80
28959;DHT22;16066;0.000;0.000;2023-04-12T16:03:15;21.90;39.90
28959;DHT22;16066;0.000;0.000;2023-04-12T16:05:47;21.90;40.00
28959;DHT22;16066;0.000;0.000;2023-04-12T16:08:14;21.90;40.00
28959;DHT22;16066;0.000;0.000;2023-04-12T16:10:40;21.90;40.00